createdAt,value
2022-08-25T00:02:13.062Z,71.66
2022-08-25T00:04:39.512Z,71.17
2022-08-25T00:07:07.704Z,71.73
2022-08-25T00:09:35.316Z,72.04
2022-08-25T00:12:03.315Z,71.21
2022-08-25T00:14:33.530Z,71.97
2022-08-25T00:17:00.441Z,71.90
2022-08-25T00:19:33.650Z,71.78
2022-08-25T00:22:01.559Z,72.42
2022-08-25T00:24:28.957Z,72.62
2022-08-25T00:26:57.595Z,72.13
2022-08-25T00:29:28.002Z,72.86
2022-08-25T00:31:55.760Z,72.26
2022-08-25T00:34:27.081Z,72.89
2022-08-25T00:36:53.823Z,72.84
2022-08-25T00:39:22.361Z,72.45
2022-08-25T00:41:51.362Z,72.86
2022-08-25T00:44:18.752Z,71.83
2022-08-25T00:46:48.963Z,72.14
2022-08-25T00:49:33.942Z,72.49
2022-08-25T00:52:13.922Z,72.76
2022-08-25T00:54:54.718Z,73.26
2022-08-25T00:57:33.949Z,72.90
2022-08-25T01:00:06.070Z,72.11
2022-08-25T01:02:32.740Z,72.97
2022-08-25T01:04:59.305Z,72.19
2022-08-25T01:07:25.976Z,72.79
2022-08-25T01:09:53.514Z,72.83
2022-08-25T01:12:20.809Z,73.43
2022-08-25T01:14:49.961Z,73.33
2022-08-25T01:17:17.062Z,73.25
2022-08-25T01:19:43.476Z,73.23
2022-08-25T01:22:12.050Z,73.37
2022-08-25T01:24:46.947Z,73.75
2022-08-25T01:27:13.942Z,73.06
2022-08-25T01:29:41.389Z,73.58
2022-08-25T01:32:12.123Z,73.83
2022-08-25T01:34:42.370Z,73.54
2022-08-25T01:37:13.180Z,73.08
2022-08-25T01:39:40.895Z,73.23
2022-08-25T01:42:08.948Z,73.44
2022-08-25T01:44:41.137Z,73.80
2022-08-25T01:47:08.265Z,73.55
2022-08-25T01:49:35.670Z,73.60
2022-08-25T01:52:32.882Z,74.07
2022-08-25T01:54:59.364Z,73.11
2022-08-25T01:57:25.935Z,73.49
2022-08-25T01:59:52.324Z,73.91
2022-08-25T02:02:18.947Z,73.46
2022-08-25T02:04:45.583Z,73.39
2022-08-25T02:07:11.998Z,73.88
2022-08-25T02:09:38.832Z,73.34
2022-08-25T02:12:05.506Z,73.67
2022-08-25T02:14:32.247Z,73.76
2022-08-25T02:16:58.853Z,73.95
2022-08-25T02:19:25.977Z,74.65
2022-08-25T02:21:53.517Z,73.80
2022-08-25T02:24:20.061Z,73.66
2022-08-25T02:26:46.601Z,74.04
2022-08-25T02:29:13.085Z,74.55
2022-08-25T02:31:39.575Z,74.48
2022-08-25T02:34:07.561Z,74.50
2022-08-25T02:36:34.838Z,75.00
2022-08-25T02:39:01.366Z,75.01
2022-08-25T02:41:31.627Z,74.62
2022-08-25T02:43:59.986Z,74.81
2022-08-25T02:46:27.222Z,74.83
2022-08-25T02:48:53.940Z,74.22
2022-08-25T02:51:22.955Z,74.79
2022-08-25T02:53:49.970Z,74.81
2022-08-25T02:56:18.653Z,75.14
2022-08-25T02:58:46.059Z,74.82
2022-08-25T03:01:13.230Z,74.70
2022-08-25T03:03:41.417Z,74.69
2022-08-25T03:06:12.763Z,74.51
2022-08-25T03:08:40.184Z,74.46
2022-08-25T03:11:07.217Z,74.66
2022-08-25T03:13:34.041Z,74.66
2022-08-25T03:16:02.886Z,74.36
2022-08-25T03:18:30.742Z,75.03
2022-08-25T03:20:57.933Z,75.11
2022-08-25T03:23:25.053Z,74.96
2022-08-25T03:26:12.836Z,75.52
2022-08-25T03:28:39.452Z,75.39
2022-08-25T03:31:05.997Z,75.71
2022-08-25T03:33:32.538Z,75.31
2022-08-25T03:35:59.454Z,75.50
2022-08-25T03:38:26.961Z,75.09
2022-08-25T03:40:54.165Z,75.34
2022-08-25T03:43:21.343Z,75.01
2022-08-25T03:45:48.031Z,74.95
2022-08-25T03:48:16.092Z,75.24
2022-08-25T03:50:51.460Z,75.23
2022-08-25T03:53:19.076Z,75.41
2022-08-25T03:55:45.613Z,74.79
2022-08-25T03:58:12.499Z,75.27
2022-08-25T04:00:39.475Z,75.43
2022-08-25T04:03:06.193Z,75.31
2022-08-25T04:05:32.947Z,75.18
2022-08-25T04:08:01.788Z,75.30
2022-08-25T04:10:29.742Z,75.56
2022-08-25T04:12:56.973Z,76.09
2022-08-25T04:15:24.429Z,75.46
2022-08-25T04:17:54.992Z,75.47
2022-08-25T04:20:21.744Z,75.48
2022-08-25T04:22:48.166Z,75.63
2022-08-25T04:25:14.612Z,75.90
2022-08-25T04:27:41.255Z,75.98
2022-08-25T04:30:08.369Z,75.88
2022-08-25T04:32:36.833Z,75.76
2022-08-25T04:35:05.192Z,75.41
2022-08-25T04:37:31.737Z,75.30
2022-08-25T04:39:58.229Z,75.36
2022-08-25T04:42:26.496Z,75.69
2022-08-25T04:44:53.549Z,75.53
2022-08-25T04:47:19.997Z,75.50
2022-08-25T04:49:46.475Z,75.31
2022-08-25T04:52:14.361Z,75.46
2022-08-25T04:54:41.127Z,75.65
2022-08-25T04:57:07.498Z,75.80
2022-08-25T04:59:34.140Z,76.05
2022-08-25T05:02:03.012Z,76.47
2022-08-25T05:04:31.095Z,76.47
2022-08-25T05:06:58.130Z,76.45
2022-08-25T05:09:25.764Z,76.28
2022-08-25T05:12:00.661Z,76.20
2022-08-25T05:14:27.165Z,75.84
2022-08-25T05:16:55.215Z,75.75
2022-08-25T05:19:30.884Z,75.42
2022-08-25T05:21:57.733Z,75.60
2022-08-25T05:24:24.551Z,75.75
2022-08-25T05:26:51.025Z,75.69
2022-08-25T05:29:17.592Z,75.40
2022-08-25T05:31:50.081Z,75.42
2022-08-25T05:34:18.719Z,75.63
2022-08-25T05:36:45.398Z,75.65
2022-08-25T05:39:11.920Z,75.67
2022-08-25T05:41:38.833Z,75.22
2022-08-25T05:44:05.601Z,74.60
2022-08-25T05:46:32.196Z,74.56
2022-08-25T05:48:59.051Z,72.87
2022-08-25T05:51:26.723Z,71.71
2022-08-25T05:53:53.813Z,72.11
2022-08-25T05:56:20.319Z,72.23
2022-08-25T05:58:47.018Z,72.14
2022-08-25T06:01:43.487Z,71.14
2022-08-25T06:04:11.801Z,70.63
2022-08-25T06:06:39.368Z,70.44
2022-08-25T06:09:08.586Z,70.51
2022-08-25T06:11:36.694Z,69.89
2022-08-25T06:14:03.628Z,68.91
2022-08-25T06:16:30.533Z,69.17
2022-08-25T06:18:57.247Z,69.93
2022-08-25T06:21:23.719Z,69.83
2022-08-25T06:23:50.210Z,70.88
2022-08-25T06:26:21.116Z,69.95
2022-08-25T06:28:50.683Z,70.37
2022-08-25T06:31:17.286Z,69.64
2022-08-25T06:33:44.419Z,68.79
2022-08-25T06:36:10.960Z,69.07
2022-08-25T06:38:37.508Z,68.35
2022-08-25T06:41:05.715Z,67.92
2022-08-25T06:43:34.160Z,65.81
2022-08-25T06:46:15.330Z,65.62
2022-08-25T06:48:42.431Z,64.46
2022-08-25T06:51:13.960Z,61.96
2022-08-25T06:53:41.325Z,63.12
2022-08-25T06:56:08.383Z,61.64
2022-08-25T06:58:35.337Z,61.91
2022-08-25T07:01:15.695Z,61.38
2022-08-25T07:03:46.579Z,61.36
2022-08-25T07:06:14.678Z,61.95
2022-08-25T07:08:45.825Z,61.33
2022-08-25T07:11:16.597Z,62.09
2022-08-25T07:13:45.010Z,61.36
2022-08-25T07:16:12.017Z,60.86
2022-08-25T07:18:39.087Z,59.32
2022-08-25T07:21:09.175Z,60.60
2022-08-25T07:23:36.210Z,56.74
2022-08-25T07:26:36.846Z,48.22
2022-08-25T07:29:08.164Z,40.57
2022-08-25T07:31:35.358Z,37.33
2022-08-25T07:34:20.498Z,36.25
2022-08-25T07:36:47.501Z,38.47
2022-08-25T07:39:13.920Z,37.47
2022-08-25T07:41:42.175Z,36.25
2022-08-25T07:44:11.055Z,36.34
2022-08-25T07:46:38.443Z,33.87
2022-08-25T07:49:16.452Z,33.45
2022-08-25T07:52:05.360Z,34.50
2022-08-25T07:54:34.551Z,32.98
2022-08-25T07:57:02.423Z,33.40
2022-08-25T07:59:29.274Z,33.28
2022-08-25T08:01:55.742Z,32.95
2022-08-25T08:04:23.582Z,30.96
2022-08-25T08:06:53.345Z,32.15
2022-08-25T08:09:19.756Z,29.99
2022-08-25T08:11:53.651Z,31.12
2022-08-25T08:14:20.949Z,31.16
2022-08-25T08:16:47.444Z,28.91
2022-08-25T08:19:13.880Z,29.21
2022-08-25T08:21:40.488Z,29.36
2022-08-25T08:24:19.545Z,28.85
2022-08-25T08:26:58.931Z,28.93
2022-08-25T08:29:26.168Z,30.10
2022-08-25T08:31:53.249Z,29.81
2022-08-25T08:34:19.769Z,28.85
2022-08-25T08:36:51.450Z,30.30
2022-08-25T08:39:17.996Z,28.61
2022-08-25T08:42:16.782Z,28.57
2022-08-25T08:44:55.371Z,28.02
2022-08-25T08:47:43.167Z,29.59
2022-08-25T08:50:34.603Z,29.92
2022-08-25T08:53:07.371Z,28.97
2022-08-25T08:55:52.487Z,28.80
2022-08-25T08:58:54.924Z,29.62
2022-08-25T09:01:46.829Z,29.61
2022-08-25T09:04:37.783Z,29.34
2022-08-25T09:07:11.177Z,28.13
2022-08-25T09:09:41.534Z,29.02
2022-08-25T09:12:13.137Z,29.67
2022-08-25T09:14:54.615Z,30.04
2022-08-25T09:17:36.661Z,29.16
2022-08-25T09:20:18.605Z,26.73
2022-08-25T09:23:22.799Z,28.11
2022-08-25T09:26:13.999Z,28.36
2022-08-25T09:28:51.300Z,27.74
2022-08-25T09:31:30.570Z,28.02
2022-08-25T09:34:00.788Z,27.54
2022-08-25T09:36:28.571Z,26.73
2022-08-25T09:38:55.773Z,25.76
2022-08-25T09:41:56.528Z,26.91
2022-08-25T09:44:31.244Z,26.68
2022-08-25T09:47:13.414Z,27.00
2022-08-25T09:49:43.853Z,25.13
2022-08-25T09:52:41.233Z,26.00
2022-08-25T09:55:08.129Z,25.86
2022-08-25T09:57:44.561Z,27.77
2022-08-25T10:00:15.976Z,26.32
2022-08-25T10:02:45.153Z,25.42
2022-08-25T10:05:23.961Z,25.71
2022-08-25T10:07:55.717Z,24.87
2022-08-25T10:10:32.964Z,25.13
2022-08-25T10:13:03.320Z,24.09
2022-08-25T10:15:36.165Z,25.41
2022-08-25T10:18:26.383Z,25.13
2022-08-25T10:21:11.012Z,26.31
2022-08-25T10:23:44.748Z,23.30
2022-08-25T10:26:22.485Z,24.35
2022-08-25T10:29:13.147Z,25.10
2022-08-25T10:31:59.284Z,24.18
2022-08-25T10:34:54.577Z,24.79
2022-08-25T10:37:42.508Z,23.88
2022-08-25T10:40:27.427Z,24.43
2022-08-25T10:43:07.584Z,26.88
2022-08-25T10:45:46.136Z,25.37
2022-08-25T10:48:24.697Z,25.32
2022-08-25T10:50:54.388Z,24.43
2022-08-25T10:53:28.091Z,24.89
2022-08-25T10:56:14.339Z,24.08
2022-08-25T10:59:09.399Z,24.46
2022-08-25T11:01:54.185Z,24.78
2022-08-25T11:04:37.889Z,24.03
2022-08-25T11:07:16.764Z,23.48
2022-08-25T11:09:49.747Z,23.75
2022-08-25T11:12:31.443Z,24.28
2022-08-25T11:15:04.164Z,23.31
2022-08-25T11:17:52.568Z,23.13
2022-08-25T11:20:28.295Z,23.28
2022-08-25T11:23:20.197Z,23.57
2022-08-25T11:25:52.062Z,23.82
2022-08-25T11:28:35.815Z,23.14
2022-08-25T11:31:04.280Z,24.61
2022-08-25T11:33:32.406Z,24.87
2022-08-25T11:36:20.791Z,24.21
2022-08-25T11:39:24.352Z,23.99
2022-08-25T11:42:11.536Z,24.20
2022-08-25T11:45:01.998Z,23.06
2022-08-25T11:48:06.654Z,25.02
2022-08-25T11:50:36.551Z,26.69
2022-08-25T11:53:26.712Z,24.51
2022-08-25T11:56:02.447Z,23.54
2022-08-25T11:58:45.099Z,23.82
2022-08-25T12:01:40.582Z,24.15
2022-08-25T12:04:30.414Z,24.07
2022-08-25T12:07:07.025Z,25.69
2022-08-25T12:09:54.673Z,24.09
2022-08-25T12:12:32.125Z,24.73
2022-08-25T12:15:23.582Z,25.89
2022-08-25T12:18:22.023Z,25.40
2022-08-25T12:20:55.007Z,26.95
2022-08-25T12:23:36.915Z,27.94
2022-08-25T12:26:56.594Z,26.19
2022-08-25T12:29:32.466Z,26.14
2022-08-25T12:32:10.954Z,25.90
2022-08-25T12:34:54.178Z,26.30
2022-08-25T12:37:23.605Z,23.71
2022-08-25T12:39:49.978Z,24.68
2022-08-25T12:42:29.722Z,24.76
2022-08-25T12:45:32.835Z,24.58
2022-08-25T12:48:25.295Z,24.72
2022-08-25T12:51:20.721Z,23.97
2022-08-25T12:53:53.227Z,23.22
2022-08-25T12:56:26.538Z,24.45
2022-08-25T12:59:10.333Z,24.68
2022-08-25T13:01:49.440Z,24.44
2022-08-25T13:04:47.429Z,23.69
2022-08-25T13:07:21.984Z,23.80
2022-08-25T13:10:11.125Z,23.56
2022-08-25T13:12:46.935Z,23.87
2022-08-25T13:15:24.892Z,24.52
2022-08-25T13:17:51.393Z,24.16
2022-08-25T13:20:29.145Z,23.77
2022-08-25T13:23:00.164Z,25.07
2022-08-25T13:25:32.669Z,23.54
2022-08-25T13:28:06.010Z,23.70
2022-08-25T13:30:37.086Z,23.66
2022-08-25T13:33:21.804Z,24.16
2022-08-25T13:36:14.547Z,23.82
2022-08-25T13:38:41.683Z,25.30
2022-08-25T13:41:23.792Z,24.01
2022-08-25T13:43:57.019Z,23.23
2022-08-25T13:46:27.668Z,24.82
2022-08-25T13:49:05.097Z,24.38
2022-08-25T13:51:31.944Z,25.58
2022-08-25T13:54:06.183Z,25.58
2022-08-25T13:56:41.848Z,25.10
2022-08-25T13:59:35.180Z,24.64
2022-08-25T14:02:08.739Z,23.21
2022-08-25T14:04:50.496Z,23.08
2022-08-25T14:07:21.145Z,25.34
2022-08-25T14:09:58.174Z,25.54
2022-08-25T14:12:33.712Z,26.76
2022-08-25T14:15:04.873Z,23.93
2022-08-25T14:17:39.031Z,23.30
2022-08-25T14:20:19.261Z,22.25
2022-08-25T14:22:46.132Z,23.78
2022-08-25T14:25:12.716Z,25.32
2022-08-25T14:28:03.512Z,25.31
2022-08-25T14:30:43.307Z,23.85
2022-08-25T14:33:10.928Z,23.82
2022-08-25T14:35:38.223Z,24.57
2022-08-25T14:38:10.968Z,25.27
2022-08-25T14:40:37.789Z,23.39
2022-08-25T14:43:04.411Z,25.82
2022-08-25T14:45:31.564Z,26.78
2022-08-25T14:48:04.540Z,27.94
2022-08-25T14:50:37.476Z,27.29
2022-08-25T14:53:09.164Z,28.89
2022-08-25T14:55:36.043Z,27.50
2022-08-25T14:58:02.638Z,28.17
2022-08-25T15:00:29.348Z,27.29
2022-08-25T15:02:56.073Z,27.74
2022-08-25T15:05:28.404Z,26.58
2022-08-25T15:08:14.363Z,29.38
2022-08-25T15:10:43.334Z,30.91
2022-08-25T15:13:10.469Z,31.14
2022-08-25T15:15:52.708Z,31.38
2022-08-25T15:18:20.773Z,32.46
2022-08-25T15:20:50.004Z,32.02
2022-08-25T15:23:17.680Z,33.29
2022-08-25T15:25:46.282Z,33.80
2022-08-25T15:28:12.957Z,35.58
2022-08-25T15:30:45.708Z,36.38
2022-08-25T15:33:13.265Z,37.26
2022-08-25T15:35:40.284Z,38.67
2022-08-25T15:38:08.114Z,39.58
2022-08-25T15:40:35.331Z,40.51
2022-08-25T15:43:02.343Z,41.66
2022-08-25T15:45:29.772Z,41.67
2022-08-25T15:47:57.248Z,41.20
2022-08-25T15:50:26.156Z,40.54
2022-08-25T15:52:52.975Z,40.64
2022-08-25T15:55:19.841Z,40.88
2022-08-25T15:57:47.373Z,41.20
2022-08-25T16:00:17.127Z,42.29
2022-08-25T16:02:45.426Z,42.32
2022-08-25T16:05:13.511Z,40.97
2022-08-25T16:07:41.001Z,42.01
2022-08-25T16:10:07.760Z,41.83
2022-08-25T16:12:34.637Z,41.67
2022-08-25T16:15:02.079Z,41.16
2022-08-25T16:17:28.492Z,39.62
2022-08-25T16:19:54.888Z,38.48
2022-08-25T16:22:21.366Z,33.14
2022-08-25T16:24:48.209Z,38.23
2022-08-25T16:27:15.183Z,37.12
2022-08-25T16:29:43.918Z,37.76
2022-08-25T16:32:13.391Z,38.59
2022-08-25T16:34:40.801Z,39.03
2022-08-25T16:37:07.477Z,39.53
2022-08-25T16:39:34.155Z,40.17
2022-08-25T16:42:01.048Z,42.32
2022-08-25T16:44:27.585Z,42.94
2022-08-25T16:46:56.045Z,43.38
2022-08-25T16:49:24.397Z,42.70
2022-08-25T16:51:57.872Z,42.24
2022-08-25T16:54:44.216Z,42.34
2022-08-25T16:57:11.739Z,42.85
2022-08-25T16:59:38.307Z,44.26
2022-08-25T17:02:06.647Z,44.12
2022-08-25T17:04:33.231Z,43.24
2022-08-25T17:06:59.873Z,43.34
2022-08-25T17:09:26.296Z,43.86
2022-08-25T17:11:56.644Z,42.35
2022-08-25T17:14:24.088Z,40.41
2022-08-25T17:16:54.559Z,39.45
2022-08-25T17:19:23.839Z,38.42
2022-08-25T17:21:50.609Z,37.15
2022-08-25T17:24:17.714Z,37.19
2022-08-25T17:26:47.314Z,37.07
2022-08-25T17:29:17.260Z,38.50
2022-08-25T17:31:46.008Z,39.90
2022-08-25T17:34:16.444Z,39.92
2022-08-25T17:36:44.214Z,40.49
2022-08-25T17:39:13.290Z,40.86
2022-08-25T17:41:43.161Z,41.36
2022-08-25T17:44:09.787Z,41.48
2022-08-25T17:46:36.724Z,41.96
2022-08-25T17:49:04.115Z,42.06
2022-08-25T17:51:32.062Z,41.98
2022-08-25T17:53:59.092Z,42.60
2022-08-25T17:56:27.779Z,42.37
2022-08-25T17:58:56.224Z,42.83
2022-08-25T18:01:28.566Z,42.77
2022-08-25T18:03:56.336Z,43.03
2022-08-25T18:06:23.981Z,42.82
2022-08-25T18:08:51.809Z,43.51
2022-08-25T18:11:21.500Z,44.34
2022-08-25T18:13:47.926Z,44.19
2022-08-25T18:16:17.123Z,44.52
2022-08-25T18:18:44.447Z,44.63
2022-08-25T18:21:14.320Z,45.59
2022-08-25T18:23:42.579Z,46.12
2022-08-25T18:26:12.945Z,46.54
2022-08-25T18:28:39.843Z,46.95
2022-08-25T18:31:06.718Z,47.67
2022-08-25T18:33:34.347Z,48.26
2022-08-25T18:36:01.995Z,48.24
2022-08-25T18:38:47.479Z,48.65
2022-08-25T18:41:13.957Z,49.23
2022-08-25T18:43:40.667Z,48.31
2022-08-25T18:46:08.328Z,48.35
2022-08-25T18:48:37.082Z,48.77
2022-08-25T18:51:04.349Z,49.00
2022-08-25T18:53:37.362Z,49.69
2022-08-25T18:56:16.331Z,50.32
2022-08-25T18:58:42.943Z,50.76
2022-08-25T19:01:13.549Z,50.66
2022-08-25T19:03:40.188Z,50.51
2022-08-25T19:06:07.088Z,51.38
2022-08-25T19:08:33.754Z,51.61
2022-08-25T19:11:00.211Z,52.00
2022-08-25T19:13:26.697Z,52.63
2022-08-25T19:15:53.309Z,52.91
2022-08-25T19:18:25.978Z,53.66
2022-08-25T19:20:52.661Z,53.60
2022-08-25T19:23:19.959Z,54.13
2022-08-25T19:25:46.742Z,54.86
2022-08-25T19:28:13.945Z,55.14
2022-08-25T19:30:49.773Z,55.11
2022-08-25T19:33:31.390Z,55.55
2022-08-25T19:36:06.242Z,56.01
2022-08-25T19:38:35.644Z,56.41
2022-08-25T19:41:13.871Z,56.50
2022-08-25T19:43:50.507Z,56.73
2022-08-25T19:46:23.248Z,57.08
2022-08-25T19:48:49.903Z,57.42
2022-08-25T19:51:17.113Z,58.10
2022-08-25T19:53:47.670Z,58.30
2022-08-25T19:56:20.229Z,58.42
2022-08-25T19:58:46.778Z,58.63
2022-08-25T20:01:14.191Z,59.02
2022-08-25T20:03:45.043Z,59.44
2022-08-25T20:06:11.871Z,59.96
2022-08-25T20:08:42.387Z,60.04
2022-08-25T20:11:08.787Z,60.14
2022-08-25T20:13:35.291Z,60.53
2022-08-25T20:16:02.032Z,60.41
2022-08-25T20:18:28.471Z,60.85
2022-08-25T20:20:55.045Z,60.72
2022-08-25T20:23:42.070Z,60.98
2022-08-25T20:26:09.185Z,60.80
2022-08-25T20:28:35.861Z,60.57
2022-08-25T20:31:02.447Z,60.55
2022-08-25T20:33:29.140Z,60.66
2022-08-25T20:35:55.822Z,60.83
2022-08-25T20:38:22.552Z,60.57
2022-08-25T20:40:49.478Z,61.37
2022-08-25T20:43:16.120Z,61.60
2022-08-25T20:45:42.841Z,61.60
2022-08-25T20:48:09.616Z,62.32
2022-08-25T20:50:38.570Z,62.72
2022-08-25T20:53:10.196Z,62.72
2022-08-25T20:55:42.544Z,63.05
2022-08-25T20:58:10.281Z,63.67
2022-08-25T21:00:36.993Z,63.61
2022-08-25T21:03:03.387Z,64.04
2022-08-25T21:05:30.006Z,63.90
2022-08-25T21:07:56.580Z,64.18
2022-08-25T21:10:23.587Z,64.54
2022-08-25T21:12:53.332Z,64.44
2022-08-25T21:15:20.252Z,64.48
2022-08-25T21:17:51.290Z,64.73
2022-08-25T21:20:18.507Z,65.44
2022-08-25T21:22:45.083Z,64.65
2022-08-25T21:25:11.863Z,65.25
2022-08-25T21:27:38.424Z,65.81
2022-08-25T21:30:06.448Z,66.46
2022-08-25T21:32:33.810Z,66.17
2022-08-25T21:35:00.321Z,66.47
2022-08-25T21:37:27.730Z,66.65
2022-08-25T21:39:54.659Z,66.96
2022-08-25T21:42:23.075Z,67.17
2022-08-25T21:44:50.744Z,66.43
2022-08-25T21:47:20.884Z,66.59
2022-08-25T21:49:48.155Z,66.54
2022-08-25T21:52:15.419Z,66.49
2022-08-25T21:54:42.069Z,66.79
2022-08-25T21:57:09.314Z,67.02
2022-08-25T21:59:38.108Z,67.26
2022-08-25T22:02:10.712Z,67.15
2022-08-25T22:04:39.484Z,67.13
2022-08-25T22:07:07.960Z,67.20
2022-08-25T22:09:35.625Z,67.25
2022-08-25T22:12:02.444Z,67.45
2022-08-25T22:14:28.860Z,67.67
2022-08-25T22:16:55.701Z,67.80
2022-08-25T22:19:23.128Z,67.96
2022-08-25T22:21:51.206Z,68.46
2022-08-25T22:24:18.692Z,68.37
2022-08-25T22:26:47.429Z,68.47
2022-08-25T22:29:24.653Z,68.70
2022-08-25T22:32:00.003Z,68.66
2022-08-25T22:34:31.674Z,68.35
2022-08-25T22:36:59.961Z,68.61
2022-08-25T22:39:27.156Z,68.69
2022-08-25T22:41:53.869Z,68.62
2022-08-25T22:44:20.420Z,68.40
2022-08-25T22:46:46.866Z,68.59
2022-08-25T22:49:13.780Z,68.57
2022-08-25T22:51:40.981Z,68.89
2022-08-25T22:54:09.617Z,68.56
2022-08-25T22:56:37.805Z,68.61
2022-08-25T22:59:07.482Z,68.65
2022-08-25T23:01:34.540Z,68.78
2022-08-25T23:04:03.361Z,69.35
2022-08-25T23:06:30.677Z,69.02
2022-08-25T23:08:57.674Z,69.17
2022-08-25T23:11:24.815Z,69.10
2022-08-25T23:13:55.319Z,69.26
2022-08-25T23:16:21.960Z,69.57
2022-08-25T23:18:48.560Z,69.62
2022-08-25T23:21:35.335Z,69.83
2022-08-25T23:24:07.811Z,69.23
2022-08-25T23:26:34.629Z,69.17
2022-08-25T23:29:03.195Z,68.86
2022-08-25T23:31:41.927Z,69.30
2022-08-25T23:34:09.749Z,69.45
2022-08-25T23:36:36.931Z,69.36
2022-08-25T23:39:04.856Z,69.06
2022-08-25T23:41:34.473Z,69.33
2022-08-25T23:44:05.253Z,69.38
2022-08-25T23:46:33.056Z,69.11
2022-08-25T23:48:59.800Z,69.25
2022-08-25T23:51:30.769Z,69.36
2022-08-25T23:53:57.663Z,69.43
2022-08-25T23:56:26.042Z,69.43
2022-08-25T23:58:52.543Z,69.76
